createdAt,value
2023-02-06T00:01:43.346Z,27.58
2023-02-06T00:04:10.133Z,29.85
2023-02-06T00:06:36.912Z,25.92
2023-02-06T00:09:04.732Z,29.30
2023-02-06T00:11:31.389Z,23.60
2023-02-06T00:13:58.116Z,22.80
2023-02-06T00:16:28.826Z,21.27
2023-02-06T00:18:57.448Z,22.92
2023-02-06T00:21:27.969Z,21.60
2023-02-06T00:23:56.562Z,20.77
2023-02-06T00:26:24.705Z,21.48
2023-02-06T00:28:51.443Z,17.77
2023-02-06T00:31:18.258Z,17.98
2023-02-06T00:33:45.010Z,18.58
2023-02-06T00:36:11.607Z,16.80
2023-02-06T00:38:38.514Z,16.52
2023-02-06T00:41:05.791Z,17.75
2023-02-06T00:43:32.893Z,13.35
2023-02-06T00:45:59.486Z,13.70
2023-02-06T00:48:26.464Z,12.30
2023-02-06T00:50:54.304Z,11.50
2023-02-06T00:53:21.506Z,9.48
2023-02-06T00:55:48.325Z,8.15
2023-02-06T00:58:15.118Z,10.50
2023-02-06T01:00:41.748Z,9.20
2023-02-06T01:03:08.304Z,8.90
2023-02-06T01:05:35.356Z,8.23
2023-02-06T01:08:04.343Z,9.40
2023-02-06T01:10:31.774Z,10.50
2023-02-06T01:12:58.763Z,9.88
2023-02-06T01:15:26.005Z,9.25
2023-02-06T01:17:52.918Z,9.93
2023-02-06T01:20:19.750Z,11.13
2023-02-06T01:22:46.401Z,11.35
2023-02-06T01:25:13.052Z,11.50
2023-02-06T01:27:39.653Z,10.57
2023-02-06T01:30:07.848Z,11.95
2023-02-06T01:32:41.765Z,9.75
2023-02-06T01:35:11.014Z,9.35
2023-02-06T01:37:38.992Z,9.35
2023-02-06T01:40:09.196Z,10.45
2023-02-06T01:42:37.618Z,9.43
2023-02-06T01:45:26.121Z,10.20
2023-02-06T01:48:00.094Z,8.70
2023-02-06T01:50:28.474Z,9.23
2023-02-06T01:52:58.006Z,8.85
2023-02-06T01:55:24.628Z,7.38
2023-02-06T01:57:52.140Z,8.35
2023-02-06T02:00:19.802Z,8.80
2023-02-06T02:02:48.922Z,7.38
2023-02-06T02:05:18.059Z,7.45
2023-02-06T02:08:00.864Z,6.65
2023-02-06T02:10:30.251Z,7.82
2023-02-06T02:12:58.386Z,8.25
2023-02-06T02:15:42.202Z,7.25
2023-02-06T02:18:59.375Z,7.65
2023-02-06T02:22:13.608Z,8.73
2023-02-06T02:25:17.803Z,8.50
2023-02-06T02:28:37.421Z,8.75
2023-02-06T02:31:42.838Z,9.15
2023-02-06T02:34:38.314Z,9.25
2023-02-06T02:37:23.443Z,9.20
2023-02-06T02:40:10.050Z,9.38
2023-02-06T02:42:54.566Z,9.77
2023-02-06T02:45:56.819Z,9.40
2023-02-06T02:48:43.532Z,9.95
2023-02-06T02:51:11.237Z,7.90
2023-02-06T02:53:38.062Z,10.93
2023-02-06T02:56:24.225Z,9.70
2023-02-06T02:58:57.829Z,9.65
2023-02-06T03:01:33.903Z,11.85
2023-02-06T03:04:10.757Z,8.85
2023-02-06T03:06:59.479Z,10.75
2023-02-06T03:09:45.946Z,9.95
2023-02-06T03:12:33.599Z,10.20
2023-02-06T03:15:07.767Z,9.63
2023-02-06T03:17:46.915Z,11.38
2023-02-06T03:20:14.869Z,12.45
2023-02-06T03:22:44.287Z,9.20
2023-02-06T03:25:17.096Z,11.13
2023-02-06T03:27:46.162Z,11.82
2023-02-06T03:30:15.976Z,10.05
2023-02-06T03:32:46.757Z,10.43
2023-02-06T03:35:36.795Z,9.02
2023-02-06T03:38:06.785Z,10.73
2023-02-06T03:40:44.534Z,11.00
2023-02-06T03:43:18.432Z,11.25
2023-02-06T03:45:59.813Z,11.27
2023-02-06T03:48:39.806Z,9.32
2023-02-06T03:51:21.971Z,10.45
2023-02-06T03:53:52.818Z,9.00
2023-02-06T03:56:43.672Z,10.82
2023-02-06T03:59:10.499Z,9.80
2023-02-06T04:01:46.960Z,9.23
2023-02-06T04:04:28.718Z,10.52
2023-02-06T04:07:08.699Z,10.65
2023-02-06T04:09:35.286Z,8.93
2023-02-06T04:12:01.862Z,8.02
2023-02-06T04:14:28.430Z,10.63
2023-02-06T04:16:55.390Z,9.52
2023-02-06T04:19:24.446Z,8.65
2023-02-06T04:21:51.058Z,9.85
2023-02-06T04:24:17.614Z,10.13
2023-02-06T04:26:44.192Z,9.30
2023-02-06T04:29:12.645Z,6.75
2023-02-06T04:31:40.394Z,7.75
2023-02-06T04:34:07.742Z,8.45
2023-02-06T04:36:34.926Z,7.95
2023-02-06T04:39:02.622Z,9.45
2023-02-06T04:41:29.226Z,8.38
2023-02-06T04:43:55.822Z,6.97
2023-02-06T04:46:22.507Z,8.95
2023-02-06T04:48:49.224Z,7.63
2023-02-06T04:51:15.843Z,6.00
2023-02-06T04:53:42.677Z,9.73
2023-02-06T04:56:12.035Z,6.78
2023-02-06T04:58:40.033Z,4.07
2023-02-06T05:01:07.217Z,4.80
2023-02-06T05:03:33.896Z,5.20
2023-02-06T05:06:01.930Z,5.50
2023-02-06T05:08:28.577Z,4.55
2023-02-06T05:10:55.858Z,5.30
2023-02-06T05:13:23.601Z,5.28
2023-02-06T05:15:50.518Z,3.97
2023-02-06T05:18:17.771Z,5.85
2023-02-06T05:20:44.784Z,5.57
2023-02-06T05:23:11.690Z,5.38
2023-02-06T05:25:39.861Z,6.25
2023-02-06T05:28:07.558Z,3.65
2023-02-06T05:30:35.048Z,5.20
2023-02-06T05:33:02.272Z,5.30
2023-02-06T05:35:28.978Z,5.55
2023-02-06T05:37:55.704Z,7.72
2023-02-06T05:40:22.392Z,3.15
2023-02-06T05:42:49.259Z,4.55
2023-02-06T05:45:15.860Z,5.30
2023-02-06T05:47:42.487Z,2.67
2023-02-06T05:50:09.505Z,2.25
2023-02-06T05:52:36.082Z,2.83
2023-02-06T05:55:02.697Z,2.50
2023-02-06T05:57:29.331Z,2.97
2023-02-06T05:59:55.988Z,2.45
2023-02-06T06:02:22.600Z,3.55
2023-02-06T06:04:49.248Z,3.10
2023-02-06T06:07:16.250Z,1.85
2023-02-06T06:09:43.152Z,3.33
2023-02-06T06:12:09.904Z,5.75
2023-02-06T06:14:36.543Z,3.58
2023-02-06T06:17:03.200Z,5.38
2023-02-06T06:19:29.778Z,5.43
2023-02-06T06:21:58.259Z,5.05
2023-02-06T06:24:26.286Z,5.13
2023-02-06T06:26:53.217Z,4.95
2023-02-06T06:29:19.806Z,3.30
2023-02-06T06:31:52.275Z,5.72
2023-02-06T06:34:18.911Z,3.30
2023-02-06T06:36:45.507Z,3.13
2023-02-06T06:39:12.142Z,6.07
2023-02-06T06:41:38.748Z,3.58
2023-02-06T06:44:05.330Z,4.35
2023-02-06T06:46:31.901Z,6.18
2023-02-06T06:48:58.613Z,5.65
2023-02-06T06:51:27.467Z,3.78
2023-02-06T06:53:54.036Z,9.02
2023-02-06T06:56:20.694Z,27.52
2023-02-06T06:58:47.318Z,42.75
2023-02-06T07:01:14.724Z,27.50
2023-02-06T07:03:44.069Z,17.17
2023-02-06T07:06:14.360Z,15.75
2023-02-06T07:08:41.998Z,14.35
2023-02-06T07:11:11.395Z,12.88
2023-02-06T07:13:38.416Z,26.20
2023-02-06T07:16:05.607Z,15.55
2023-02-06T07:18:32.686Z,10.43
2023-02-06T07:20:59.948Z,9.98
2023-02-06T07:23:27.358Z,7.90
2023-02-06T07:25:56.363Z,13.80
2023-02-06T07:28:23.152Z,7.63
2023-02-06T07:30:49.797Z,7.95
2023-02-06T07:33:16.410Z,7.60
2023-02-06T07:35:43.838Z,8.85
2023-02-06T07:38:14.737Z,6.95
2023-02-06T07:40:45.577Z,6.85
2023-02-06T07:43:13.649Z,5.18
2023-02-06T07:45:40.650Z,7.72
2023-02-06T07:48:07.949Z,6.60
2023-02-06T07:50:35.109Z,8.18
2023-02-06T07:53:02.373Z,5.55
2023-02-06T07:55:31.032Z,5.68
2023-02-06T07:57:57.695Z,5.25
2023-02-06T08:00:24.491Z,9.93
2023-02-06T08:02:51.890Z,6.40
2023-02-06T08:05:18.746Z,9.68
2023-02-06T08:07:45.530Z,6.55
2023-02-06T08:10:12.191Z,7.50
2023-02-06T08:12:38.796Z,5.43
2023-02-06T08:15:05.837Z,5.15
2023-02-06T08:17:32.522Z,10.55
2023-02-06T08:20:00.353Z,8.68
2023-02-06T08:22:31.790Z,4.75
2023-02-06T08:25:08.669Z,7.00
2023-02-06T08:27:45.291Z,4.65
2023-02-06T08:30:13.458Z,9.55
2023-02-06T08:32:50.104Z,6.20
2023-02-06T08:35:24.404Z,6.85
2023-02-06T08:37:52.815Z,6.93
2023-02-06T08:40:29.379Z,5.30
2023-02-06T08:43:00.959Z,6.65
2023-02-06T08:45:28.892Z,8.38
2023-02-06T08:47:56.562Z,5.72
2023-02-06T08:50:33.187Z,7.28
2023-02-06T08:53:05.334Z,7.57
2023-02-06T08:55:36.006Z,8.57
2023-02-06T08:58:12.628Z,6.38
2023-02-06T09:00:49.173Z,7.85
2023-02-06T09:03:15.892Z,5.47
2023-02-06T09:05:44.244Z,5.65
2023-02-06T09:08:20.859Z,6.40
2023-02-06T09:10:49.000Z,4.70
2023-02-06T09:13:15.570Z,6.18
2023-02-06T09:15:43.182Z,8.27
2023-02-06T09:18:09.930Z,8.38
2023-02-06T09:20:36.513Z,7.43
2023-02-06T09:23:03.249Z,6.80
2023-02-06T09:25:29.904Z,7.13
2023-02-06T09:27:57.176Z,5.70
2023-02-06T09:30:23.961Z,6.93
2023-02-06T09:32:50.585Z,7.72
2023-02-06T09:35:17.222Z,6.75
2023-02-06T09:37:47.494Z,7.38
2023-02-06T09:40:20.793Z,6.93
2023-02-06T09:42:48.227Z,5.88
2023-02-06T09:45:22.706Z,6.93
2023-02-06T09:48:16.240Z,6.80
2023-02-06T09:51:07.828Z,7.57
2023-02-06T09:54:19.753Z,9.75
2023-02-06T09:57:06.306Z,9.40
2023-02-06T09:59:43.206Z,9.27
2023-02-06T10:02:33.510Z,9.18
2023-02-06T10:05:59.170Z,11.13
2023-02-06T10:08:34.509Z,12.00
2023-02-06T10:11:09.824Z,9.68
2023-02-06T10:13:49.577Z,8.38
2023-02-06T10:16:43.441Z,10.48
2023-02-06T10:19:29.363Z,11.80
2023-02-06T10:22:13.825Z,26.17
2023-02-06T10:25:23.765Z,14.55
2023-02-06T10:27:59.425Z,10.00
2023-02-06T10:31:01.560Z,9.30
2023-02-06T10:34:11.119Z,7.65
2023-02-06T10:37:21.324Z,7.75
2023-02-06T10:40:02.992Z,6.90
2023-02-06T10:42:58.213Z,8.25
2023-02-06T10:45:49.653Z,9.95
2023-02-06T10:48:44.277Z,8.50
2023-02-06T10:51:32.946Z,9.18
2023-02-06T10:54:10.523Z,8.15
2023-02-06T10:56:44.278Z,17.15
2023-02-06T10:59:35.311Z,10.27
2023-02-06T11:02:27.526Z,10.50
2023-02-06T11:05:04.676Z,9.02
2023-02-06T11:07:41.629Z,10.43
2023-02-06T11:10:16.119Z,7.50
2023-02-06T11:12:49.281Z,5.50
2023-02-06T11:15:38.792Z,6.78
2023-02-06T11:18:08.505Z,12.18
2023-02-06T11:20:38.837Z,9.23
2023-02-06T11:23:19.197Z,9.45
2023-02-06T11:25:52.446Z,7.60
2023-02-06T11:28:20.876Z,4.72
2023-02-06T11:31:00.400Z,7.72
2023-02-06T11:33:41.237Z,8.57
2023-02-06T11:36:32.731Z,4.68
2023-02-06T11:39:41.342Z,5.78
2023-02-06T11:42:13.741Z,8.38
2023-02-06T11:44:45.170Z,8.43
2023-02-06T11:47:35.477Z,9.48
2023-02-06T11:50:26.064Z,9.73
2023-02-06T11:53:16.622Z,14.35
2023-02-06T11:55:58.557Z,5.53
2023-02-06T11:58:27.545Z,3.80
2023-02-06T12:00:56.182Z,6.00
2023-02-06T12:03:36.881Z,7.30
2023-02-06T12:06:39.786Z,8.30
2023-02-06T12:09:12.696Z,8.45
2023-02-06T12:11:52.054Z,10.82
2023-02-06T12:14:43.850Z,6.72
2023-02-06T12:17:36.758Z,5.95
2023-02-06T12:20:28.794Z,6.57
2023-02-06T12:23:04.381Z,5.72
2023-02-06T12:25:44.066Z,8.15
2023-02-06T12:28:46.563Z,10.65
2023-02-06T12:31:21.258Z,4.88
2023-02-06T12:33:55.888Z,5.88
2023-02-06T12:36:30.688Z,5.53
2023-02-06T12:39:06.688Z,6.32
2023-02-06T12:42:00.889Z,8.48
2023-02-06T12:44:37.280Z,5.82
2023-02-06T12:47:39.204Z,4.95
2023-02-06T12:50:31.976Z,7.40
2023-02-06T12:53:17.527Z,4.68
2023-02-06T12:56:03.808Z,9.02
2023-02-06T12:59:27.051Z,17.00
2023-02-06T13:02:25.824Z,8.52
2023-02-06T13:04:54.813Z,5.47
2023-02-06T13:07:25.136Z,5.85
2023-02-06T13:10:08.295Z,7.80
2023-02-06T13:12:34.979Z,6.38
2023-02-06T13:15:07.057Z,6.05
2023-02-06T13:17:39.328Z,5.78
2023-02-06T13:20:16.410Z,5.15
2023-02-06T13:22:53.758Z,8.00
2023-02-06T13:25:28.407Z,4.78
2023-02-06T13:28:05.942Z,7.03
2023-02-06T13:30:32.664Z,5.97
2023-02-06T13:33:21.175Z,4.25
2023-02-06T13:36:05.348Z,5.22
2023-02-06T13:38:35.019Z,9.23
2023-02-06T13:41:14.090Z,6.70
2023-02-06T13:44:11.736Z,7.20
2023-02-06T13:47:26.834Z,4.38
2023-02-06T13:50:12.359Z,5.53
2023-02-06T13:53:07.667Z,9.90
2023-02-06T13:56:09.014Z,4.63
2023-02-06T13:58:43.998Z,7.85
2023-02-06T14:01:17.167Z,4.88
2023-02-06T14:03:47.979Z,3.28
2023-02-06T14:06:56.697Z,7.55
2023-02-06T14:09:45.703Z,9.02
2023-02-06T14:12:44.391Z,5.65
2023-02-06T14:15:27.853Z,8.77
2023-02-06T14:18:38.094Z,6.57
2023-02-06T14:21:31.681Z,14.30
2023-02-06T14:24:25.930Z,15.88
2023-02-06T14:27:25.909Z,18.58
2023-02-06T14:30:27.498Z,12.18
2023-02-06T14:33:44.177Z,5.90
2023-02-06T14:36:41.453Z,4.35
2023-02-06T14:39:38.374Z,4.15
2023-02-06T14:42:36.100Z,17.85
2023-02-06T14:45:08.963Z,8.77
2023-02-06T14:47:42.225Z,6.55
2023-02-06T14:50:27.735Z,7.13
2023-02-06T14:53:09.191Z,6.82
2023-02-06T14:55:42.612Z,4.70
2023-02-06T14:58:38.618Z,6.28
2023-02-06T15:01:16.454Z,9.90
2023-02-06T15:03:45.365Z,5.85
2023-02-06T15:06:16.238Z,4.57
2023-02-06T15:08:50.304Z,6.35
2023-02-06T15:11:25.254Z,7.95
2023-02-06T15:13:55.431Z,4.20
2023-02-06T15:16:22.558Z,7.13
2023-02-06T15:18:49.276Z,4.78
2023-02-06T15:21:19.190Z,4.90
2023-02-06T15:24:28.840Z,9.95
2023-02-06T15:27:26.460Z,5.70
2023-02-06T15:29:53.488Z,7.82
2023-02-06T15:32:34.846Z,5.85
2023-02-06T15:35:02.075Z,4.80
2023-02-06T15:37:34.892Z,4.43
2023-02-06T15:40:22.791Z,8.10
2023-02-06T15:42:50.555Z,6.43
2023-02-06T15:45:29.732Z,7.13
2023-02-06T15:47:57.203Z,7.95
2023-02-06T15:50:27.899Z,6.75
2023-02-06T15:52:56.046Z,4.85
2023-02-06T15:55:27.946Z,6.35
2023-02-06T15:57:57.642Z,5.32
2023-02-06T16:00:36.116Z,5.05
2023-02-06T16:03:17.711Z,7.43
2023-02-06T16:05:45.744Z,5.93
2023-02-06T16:08:29.992Z,6.75
2023-02-06T16:11:04.785Z,7.32
2023-02-06T16:13:33.197Z,9.18
2023-02-06T16:16:11.706Z,3.58
2023-02-06T16:18:40.153Z,5.18
2023-02-06T16:21:15.883Z,6.95
2023-02-06T16:23:52.664Z,11.10
2023-02-06T16:26:26.641Z,7.55
2023-02-06T16:29:20.801Z,6.97
2023-02-06T16:32:01.398Z,26.05
2023-02-06T16:34:39.737Z,17.55
2023-02-06T16:37:12.741Z,8.13
2023-02-06T16:39:44.203Z,9.60
2023-02-06T16:42:21.576Z,7.47
2023-02-06T16:44:53.471Z,5.43
2023-02-06T16:47:21.792Z,5.88
2023-02-06T16:49:48.468Z,8.20
2023-02-06T16:52:31.423Z,12.43
2023-02-06T16:54:59.166Z,11.02
2023-02-06T16:57:36.371Z,9.25
2023-02-06T17:00:09.366Z,9.25
2023-02-06T17:02:36.606Z,8.45
2023-02-06T17:05:16.082Z,5.30
2023-02-06T17:07:43.072Z,11.55
2023-02-06T17:10:12.838Z,9.20
2023-02-06T17:12:45.030Z,8.07
2023-02-06T17:15:17.702Z,10.65
2023-02-06T17:17:45.102Z,7.55
2023-02-06T17:20:37.263Z,9.43
2023-02-06T17:23:04.981Z,8.07
2023-02-06T17:25:32.051Z,9.60
2023-02-06T17:27:59.319Z,5.85
2023-02-06T17:30:26.795Z,5.28
2023-02-06T17:32:54.191Z,7.40
2023-02-06T17:35:20.834Z,8.68
2023-02-06T17:37:49.022Z,7.35
2023-02-06T17:40:34.036Z,9.68
2023-02-06T17:43:04.051Z,7.85
2023-02-06T17:45:31.380Z,11.07
2023-02-06T17:47:58.052Z,8.20
2023-02-06T17:50:28.156Z,9.00
2023-02-06T17:52:56.011Z,12.07
2023-02-06T17:55:25.551Z,6.28
2023-02-06T17:57:53.338Z,9.93
2023-02-06T18:00:23.527Z,8.52
2023-02-06T18:02:55.006Z,9.88
2023-02-06T18:05:22.877Z,10.25
2023-02-06T18:07:50.648Z,9.77
2023-02-06T18:10:23.603Z,7.47
2023-02-06T18:12:50.437Z,7.88
2023-02-06T18:15:17.562Z,11.25
2023-02-06T18:17:44.423Z,9.82
2023-02-06T18:20:12.801Z,28.02
2023-02-06T18:22:42.259Z,24.42
2023-02-06T18:25:12.708Z,11.15
2023-02-06T18:27:41.457Z,12.43
2023-02-06T18:30:09.505Z,11.65
2023-02-06T18:32:38.409Z,11.00
2023-02-06T18:35:07.295Z,17.65
2023-02-06T18:37:34.913Z,23.08
2023-02-06T18:40:02.007Z,15.13
2023-02-06T18:42:47.056Z,8.07
2023-02-06T18:45:13.787Z,7.07
2023-02-06T18:47:42.180Z,8.85
2023-02-06T18:50:11.421Z,11.00
2023-02-06T18:52:39.217Z,12.35
2023-02-06T18:55:08.189Z,13.82
2023-02-06T18:57:35.581Z,14.43
2023-02-06T19:00:05.917Z,9.18
2023-02-06T19:02:32.831Z,13.27
2023-02-06T19:04:59.956Z,14.30
2023-02-06T19:07:26.933Z,6.60
2023-02-06T19:10:01.940Z,10.30
2023-02-06T19:12:29.614Z,11.50
2023-02-06T19:14:57.323Z,24.70
2023-02-06T19:17:26.314Z,16.95
2023-02-06T19:19:53.272Z,8.48
2023-02-06T19:22:20.135Z,8.15
2023-02-06T19:24:46.821Z,8.27
2023-02-06T19:27:14.523Z,7.50
2023-02-06T19:29:41.335Z,10.50
2023-02-06T19:32:09.356Z,8.95
2023-02-06T19:34:40.551Z,4.95
2023-02-06T19:37:09.298Z,8.07
2023-02-06T19:39:37.882Z,12.07
2023-02-06T19:42:06.880Z,11.70
2023-02-06T19:44:35.431Z,13.55
2023-02-06T19:47:03.125Z,9.07
2023-02-06T19:49:30.610Z,10.75
2023-02-06T19:51:57.723Z,10.65
2023-02-06T19:54:24.492Z,9.65
2023-02-06T19:56:51.170Z,9.95
2023-02-06T19:59:22.911Z,12.10
2023-02-06T20:02:01.493Z,9.52
2023-02-06T20:04:33.960Z,10.32
2023-02-06T20:07:00.986Z,13.32
2023-02-06T20:09:28.364Z,7.05
2023-02-06T20:11:56.339Z,12.13
2023-02-06T20:14:24.604Z,9.07
2023-02-06T20:16:51.393Z,10.32
2023-02-06T20:19:22.722Z,14.50
2023-02-06T20:21:57.118Z,10.68
2023-02-06T20:24:30.645Z,8.57
2023-02-06T20:27:01.868Z,11.25
2023-02-06T20:29:32.692Z,7.93
2023-02-06T20:32:00.658Z,9.23
2023-02-06T20:34:27.803Z,10.18
2023-02-06T20:36:55.463Z,5.95
2023-02-06T20:39:22.215Z,6.78
2023-02-06T20:41:50.638Z,6.95
2023-02-06T20:44:18.480Z,9.00
2023-02-06T20:46:45.237Z,5.15
2023-02-06T20:49:17.235Z,4.50
2023-02-06T20:51:43.935Z,4.45
2023-02-06T20:54:11.542Z,4.78
2023-02-06T20:56:39.627Z,5.65
2023-02-06T20:59:07.744Z,6.05
2023-02-06T21:01:35.176Z,4.60
2023-02-06T21:04:07.672Z,4.38
2023-02-06T21:06:37.165Z,4.70
2023-02-06T21:09:06.802Z,4.10
2023-02-06T21:11:41.268Z,6.40
2023-02-06T21:14:08.705Z,4.47
2023-02-06T21:16:37.692Z,3.20
2023-02-06T21:19:09.081Z,3.38
2023-02-06T21:21:37.086Z,2.95
2023-02-06T21:24:05.053Z,4.15
2023-02-06T21:26:31.814Z,3.38
2023-02-06T21:28:59.787Z,3.20
2023-02-06T21:31:36.055Z,6.65
2023-02-06T21:34:12.551Z,4.75
2023-02-06T21:36:39.902Z,3.22
2023-02-06T21:39:07.820Z,6.53
2023-02-06T21:41:36.654Z,2.83
2023-02-06T21:44:04.076Z,4.88
2023-02-06T21:46:30.855Z,2.33
2023-02-06T21:48:57.797Z,3.08
2023-02-06T21:51:24.591Z,3.05
2023-02-06T21:53:51.276Z,4.35
2023-02-06T21:56:25.327Z,4.07
2023-02-06T21:58:52.293Z,3.88
2023-02-06T22:01:28.392Z,4.20
2023-02-06T22:03:56.956Z,4.00
2023-02-06T22:06:23.912Z,12.48
2023-02-06T22:08:52.744Z,8.00
2023-02-06T22:11:21.909Z,7.80
2023-02-06T22:13:50.074Z,17.50
2023-02-06T22:16:21.678Z,26.92
2023-02-06T22:18:49.484Z,19.48
2023-02-06T22:21:20.315Z,9.68
2023-02-06T22:23:49.325Z,10.45
2023-02-06T22:26:18.899Z,7.68
2023-02-06T22:28:45.616Z,8.23
2023-02-06T22:31:27.220Z,6.28
2023-02-06T22:33:54.797Z,5.10
2023-02-06T22:36:25.501Z,5.10
2023-02-06T22:39:01.742Z,4.72
2023-02-06T22:41:29.471Z,3.90
2023-02-06T22:43:59.662Z,5.03
2023-02-06T22:46:33.328Z,3.40
2023-02-06T22:49:00.617Z,3.85
2023-02-06T22:51:27.376Z,5.07
2023-02-06T22:53:54.826Z,3.97
2023-02-06T22:56:37.507Z,3.40
2023-02-06T22:59:17.886Z,2.65
2023-02-06T23:02:04.785Z,2.15
2023-02-06T23:04:34.551Z,2.33
2023-02-06T23:07:02.017Z,6.05
2023-02-06T23:09:33.502Z,2.15
2023-02-06T23:12:01.894Z,1.60
2023-02-06T23:14:31.847Z,3.80
2023-02-06T23:17:01.051Z,2.88
2023-02-06T23:19:39.937Z,6.53
2023-02-06T23:22:06.680Z,3.40
2023-02-06T23:24:33.464Z,5.07
2023-02-06T23:27:00.218Z,3.08
2023-02-06T23:29:26.848Z,4.88
2023-02-06T23:31:53.989Z,2.75
2023-02-06T23:34:24.080Z,4.03
2023-02-06T23:36:51.768Z,3.50
2023-02-06T23:39:18.895Z,2.55
2023-02-06T23:41:45.569Z,3.45
2023-02-06T23:44:12.541Z,5.97
2023-02-06T23:46:40.338Z,2.42
2023-02-06T23:49:07.652Z,1.63
2023-02-06T23:51:36.398Z,2.35
2023-02-06T23:54:04.731Z,2.28
2023-02-06T23:56:31.906Z,1.42
2023-02-06T23:59:00.485Z,1.35
